createdAt,value
2018-10-17T00:00:53.273Z,15.00
2018-10-17T00:01:53.221Z,15.04
2018-10-17T00:02:53.197Z,15.01
2018-10-17T00:03:53.167Z,14.97
2018-10-17T00:04:53.181Z,14.98
2018-10-17T00:05:53.118Z,14.87
2018-10-17T00:06:53.106Z,14.93
2018-10-17T00:07:53.064Z,14.87
2018-10-17T00:08:53.036Z,14.86
2018-10-17T00:09:53.013Z,14.86
2018-10-17T00:10:53.000Z,14.75
2018-10-17T00:11:52.957Z,14.74
2018-10-17T00:12:52.974Z,14.82
2018-10-17T00:13:52.903Z,14.72
2018-10-17T00:14:52.877Z,14.67
2018-10-17T00:15:52.851Z,14.60
2018-10-17T00:16:52.871Z,14.67
2018-10-17T00:17:52.803Z,14.74
2018-10-17T00:18:52.801Z,14.69
2018-10-17T00:19:52.747Z,14.61
2018-10-17T00:20:52.719Z,14.57
2018-10-17T00:21:52.692Z,14.72
2018-10-17T00:22:52.681Z,14.95
2018-10-17T00:23:52.639Z,14.97
2018-10-17T00:24:52.623Z,15.04
2018-10-17T00:25:52.589Z,15.16
2018-10-17T00:26:52.561Z,15.09
2018-10-17T00:27:52.536Z,15.12
2018-10-17T00:28:52.510Z,15.25
2018-10-17T00:29:52.487Z,15.22
2018-10-17T00:30:52.522Z,15.33
2018-10-17T00:31:52.431Z,15.35
2018-10-17T00:32:52.406Z,15.52
2018-10-17T00:33:52.377Z,15.48
2018-10-17T00:34:52.393Z,15.37
2018-10-17T00:35:52.322Z,15.28
2018-10-17T00:36:52.309Z,15.23
2018-10-17T00:37:52.276Z,15.20
2018-10-17T00:38:52.252Z,15.12
2018-10-17T00:39:52.217Z,15.12
2018-10-17T00:40:52.229Z,15.03
2018-10-17T00:41:52.172Z,15.15
2018-10-17T00:42:52.155Z,15.33
2018-10-17T00:43:52.112Z,15.23
2018-10-17T00:44:52.083Z,15.23
2018-10-17T00:45:52.059Z,15.27
2018-10-17T00:46:52.036Z,15.22
2018-10-17T00:47:52.006Z,15.18
2018-10-17T00:48:52.021Z,15.16
2018-10-17T00:49:51.954Z,15.16
2018-10-17T00:50:51.926Z,15.11
2018-10-17T00:51:51.900Z,15.01
2018-10-17T00:52:51.916Z,15.03
2018-10-17T00:53:51.848Z,14.98
2018-10-17T00:54:51.824Z,14.95
2018-10-17T00:55:51.795Z,14.97
2018-10-17T00:56:51.788Z,15.00
2018-10-17T00:57:51.745Z,14.98
2018-10-17T00:58:51.757Z,15.01
2018-10-17T00:59:51.690Z,15.03
2018-10-17T01:00:51.676Z,14.94
2018-10-17T01:01:51.638Z,15.01
2018-10-17T01:02:51.860Z,15.00
2018-10-17T01:03:51.583Z,14.93
2018-10-17T01:04:51.586Z,14.98
2018-10-17T01:05:51.533Z,14.94
2018-10-17T01:06:51.528Z,14.86
2018-10-17T01:07:51.477Z,14.64
2018-10-17T01:08:51.455Z,14.71
2018-10-17T01:09:51.425Z,14.66
2018-10-17T01:10:51.447Z,14.69
2018-10-17T01:11:51.377Z,14.59
2018-10-17T01:12:51.348Z,14.67
2018-10-17T01:13:51.319Z,14.60
2018-10-17T01:14:51.293Z,14.59
2018-10-17T01:15:51.265Z,14.57
2018-10-17T01:16:51.293Z,14.64
2018-10-17T01:17:51.215Z,14.61
2018-10-17T01:18:51.203Z,14.64
2018-10-17T01:19:51.164Z,14.64
2018-10-17T01:20:51.134Z,14.56
2018-10-17T01:21:51.107Z,14.48
2018-10-17T01:22:51.090Z,14.48
2018-10-17T01:23:51.056Z,14.30
2018-10-17T01:24:51.035Z,14.30
2018-10-17T01:25:51.002Z,14.29
2018-10-17T01:26:50.974Z,14.29
2018-10-17T01:27:50.947Z,14.27
2018-10-17T01:28:50.970Z,14.31
2018-10-17T01:29:50.899Z,14.35
2018-10-17T01:30:50.870Z,14.30
2018-10-17T01:31:50.842Z,14.42
2018-10-17T01:32:50.867Z,14.35
2018-10-17T01:33:50.789Z,14.38
2018-10-17T01:34:50.766Z,14.31
2018-10-17T01:35:50.737Z,14.30
2018-10-17T01:36:50.730Z,14.27
2018-10-17T01:37:50.690Z,14.34
2018-10-17T01:38:50.661Z,14.38
2018-10-17T01:39:50.631Z,14.23
2018-10-17T01:40:50.651Z,14.23
2018-10-17T01:41:50.576Z,14.17
2018-10-17T01:42:50.551Z,14.19
2018-10-17T01:43:50.548Z,14.17
2018-10-17T01:44:50.497Z,14.24
2018-10-17T01:45:50.472Z,14.26
2018-10-17T01:46:50.445Z,14.27
2018-10-17T01:47:50.416Z,14.24
2018-10-17T01:48:50.392Z,14.23
2018-10-17T01:49:50.365Z,14.09
2018-10-17T01:50:50.336Z,14.11
2018-10-17T01:51:50.313Z,14.08
2018-10-17T01:52:50.283Z,14.08
2018-10-17T01:53:50.257Z,14.05
2018-10-17T01:54:50.229Z,13.98
2018-10-17T01:55:50.203Z,13.96
2018-10-17T01:56:50.176Z,13.99
2018-10-17T01:57:50.150Z,13.98
2018-10-17T01:58:50.129Z,14.12
2018-10-17T01:59:50.098Z,14.12
2018-10-17T02:00:50.073Z,14.13
2018-10-17T02:01:50.045Z,14.06
2018-10-17T02:02:50.035Z,13.99
2018-10-17T02:03:49.989Z,14.02
2018-10-17T02:04:49.965Z,13.91
2018-10-17T02:05:49.936Z,13.99
2018-10-17T02:06:49.910Z,13.94
2018-10-17T02:07:49.883Z,13.98
2018-10-17T02:08:49.856Z,13.94
2018-10-17T02:09:49.831Z,13.96
2018-10-17T02:10:49.802Z,13.96
2018-10-17T02:11:49.776Z,14.02
2018-10-17T02:12:49.749Z,13.96
2018-10-17T02:13:49.722Z,13.90
2018-10-17T02:14:49.695Z,13.90
2018-10-17T02:15:49.672Z,13.87
2018-10-17T02:16:49.649Z,13.91
2018-10-17T02:17:49.617Z,13.90
2018-10-17T02:18:49.590Z,13.88
2018-10-17T02:19:49.562Z,13.88
2018-10-17T02:20:49.535Z,13.83
2018-10-17T02:21:49.511Z,13.76
2018-10-17T02:22:49.481Z,13.86
2018-10-17T02:23:49.458Z,13.87
2018-10-17T02:24:49.435Z,13.83
2018-10-17T02:25:49.404Z,13.83
2018-10-17T02:26:49.374Z,13.86
2018-10-17T02:27:49.347Z,13.81
2018-10-17T02:28:49.322Z,13.73
2018-10-17T02:29:49.297Z,13.65
2018-10-17T02:30:49.273Z,13.57
2018-10-17T02:31:49.241Z,13.63
2018-10-17T02:32:49.221Z,13.73
2018-10-17T02:33:49.186Z,13.72
2018-10-17T02:34:49.160Z,13.69
2018-10-17T02:35:49.140Z,13.76
2018-10-17T02:36:49.106Z,13.91
2018-10-17T02:37:49.135Z,13.86
2018-10-17T02:38:49.055Z,13.81
2018-10-17T02:39:49.163Z,13.80
2018-10-17T02:40:49.003Z,13.90
2018-10-17T02:41:48.972Z,13.91
2018-10-17T02:42:48.944Z,13.98
2018-10-17T02:43:48.922Z,13.91
2018-10-17T02:44:48.891Z,13.83
2018-10-17T02:45:48.873Z,13.83
2018-10-17T02:46:48.839Z,13.84
2018-10-17T02:47:48.810Z,13.68
2018-10-17T02:48:48.787Z,13.76
2018-10-17T02:49:48.960Z,13.69
2018-10-17T02:50:48.932Z,13.69
2018-10-17T02:51:48.905Z,13.73
2018-10-17T02:52:48.677Z,13.68
2018-10-17T02:53:48.648Z,13.54
2018-10-17T02:54:48.825Z,13.61
2018-10-17T02:55:48.798Z,13.61
2018-10-17T02:56:48.568Z,13.73
2018-10-17T02:57:48.542Z,13.73
2018-10-17T02:58:48.514Z,13.69
2018-10-17T02:59:48.486Z,13.75
2018-10-17T03:00:48.466Z,13.79
2018-10-17T03:01:48.435Z,13.76
2018-10-17T03:02:48.407Z,13.88
2018-10-17T03:03:48.583Z,13.91
2018-10-17T03:04:48.352Z,13.94
2018-10-17T03:05:48.338Z,13.94
2018-10-17T03:06:48.300Z,13.80
2018-10-17T03:07:48.324Z,13.75
2018-10-17T03:08:48.246Z,13.72
2018-10-17T03:09:48.220Z,13.83
2018-10-17T03:10:48.190Z,13.75
2018-10-17T03:11:48.167Z,13.69
2018-10-17T03:12:48.137Z,13.69
2018-10-17T03:13:48.115Z,13.73
2018-10-17T03:14:48.285Z,13.68
2018-10-17T03:15:48.059Z,13.69
2018-10-17T03:16:49.045Z,13.73
2018-10-17T03:17:48.008Z,13.71
2018-10-17T03:18:47.975Z,13.68
2018-10-17T03:19:47.949Z,13.62
2018-10-17T03:20:47.921Z,13.68
2018-10-17T03:21:47.894Z,13.63
2018-10-17T03:22:47.871Z,13.68
2018-10-17T03:23:47.841Z,13.72
2018-10-17T03:24:47.816Z,13.79
2018-10-17T03:25:47.789Z,13.69
2018-10-17T03:26:47.760Z,13.66
2018-10-17T03:27:47.815Z,13.71
2018-10-17T03:28:47.705Z,13.63
2018-10-17T03:29:47.679Z,13.71
2018-10-17T03:30:47.652Z,13.68
2018-10-17T03:31:47.623Z,13.75
2018-10-17T03:32:47.599Z,13.68
2018-10-17T03:33:47.571Z,13.59
2018-10-17T03:34:47.543Z,13.62
2018-10-17T03:35:47.545Z,13.61
2018-10-17T03:36:47.489Z,13.66
2018-10-17T03:37:47.463Z,13.62
2018-10-17T03:38:47.442Z,13.65
2018-10-17T03:39:47.409Z,13.57
2018-10-17T03:40:47.384Z,13.65
2018-10-17T03:41:47.361Z,13.73
2018-10-17T03:42:47.334Z,13.71
2018-10-17T03:43:47.303Z,13.63
2018-10-17T03:44:47.275Z,13.65
2018-10-17T03:45:47.252Z,13.61
2018-10-17T03:46:47.220Z,13.59
2018-10-17T03:47:47.192Z,13.53
2018-10-17T03:48:47.169Z,13.61
2018-10-17T03:49:47.177Z,13.61
2018-10-17T03:50:47.113Z,13.69
2018-10-17T03:51:47.084Z,13.69
2018-10-17T03:52:47.058Z,13.63
2018-10-17T03:53:47.031Z,13.66
2018-10-17T03:54:47.005Z,13.62
2018-10-17T03:55:46.983Z,13.65
2018-10-17T03:56:46.949Z,13.54
2018-10-17T03:57:46.924Z,13.55
2018-10-17T03:58:46.895Z,13.53
2018-10-17T03:59:46.948Z,13.41
2018-10-17T04:00:46.845Z,13.44
2018-10-17T04:01:46.819Z,13.53
2018-10-17T04:02:46.867Z,13.53
2018-10-17T04:03:46.767Z,13.50
2018-10-17T04:04:46.734Z,13.53
2018-10-17T04:05:46.707Z,13.54
2018-10-17T04:06:46.680Z,13.44
2018-10-17T04:07:46.653Z,13.46
2018-10-17T04:08:46.628Z,13.47
2018-10-17T04:09:46.602Z,13.48
2018-10-17T04:10:46.573Z,13.47
2018-10-17T04:11:46.548Z,13.36
2018-10-17T04:12:46.519Z,13.29
2018-10-17T04:13:46.494Z,13.36
2018-10-17T04:14:46.466Z,13.31
2018-10-17T04:15:46.441Z,13.31
2018-10-17T04:16:46.411Z,13.39
2018-10-17T04:17:46.388Z,13.44
2018-10-17T04:18:46.355Z,13.41
2018-10-17T04:19:46.333Z,13.44
2018-10-17T04:20:46.311Z,13.35
2018-10-17T04:21:46.285Z,13.43
2018-10-17T04:22:46.447Z,13.44
2018-10-17T04:23:46.222Z,13.43
2018-10-17T04:24:46.204Z,13.32
2018-10-17T04:25:46.167Z,13.32
2018-10-17T04:26:46.139Z,13.38
2018-10-17T04:27:46.113Z,13.29
2018-10-17T04:28:46.087Z,13.35
2018-10-17T04:29:46.060Z,13.38
2018-10-17T04:30:46.032Z,13.47
2018-10-17T04:31:46.005Z,13.44
2018-10-17T04:32:45.981Z,13.31
2018-10-17T04:33:45.954Z,13.35
2018-10-17T04:34:45.942Z,13.35
2018-10-17T04:35:45.902Z,13.31
2018-10-17T04:36:45.869Z,13.32
2018-10-17T04:37:45.844Z,13.35
2018-10-17T04:38:45.819Z,13.31
2018-10-17T04:39:45.790Z,13.36
2018-10-17T04:40:45.764Z,13.27
2018-10-17T04:41:45.738Z,13.31
2018-10-17T04:42:45.712Z,13.39
2018-10-17T04:43:45.692Z,13.32
2018-10-17T04:44:45.656Z,13.41
2018-10-17T04:45:45.637Z,13.43
2018-10-17T04:46:45.600Z,13.41
2018-10-17T04:47:45.634Z,13.53
2018-10-17T04:48:45.748Z,13.47
2018-10-17T04:49:45.721Z,13.39
2018-10-17T04:50:45.695Z,13.46
2018-10-17T04:51:45.465Z,13.54
2018-10-17T04:52:45.443Z,13.61
2018-10-17T04:53:45.615Z,13.55
2018-10-17T04:54:45.588Z,13.44
2018-10-17T04:55:45.561Z,13.46
2018-10-17T04:56:45.330Z,13.48
2018-10-17T04:57:45.303Z,13.54
2018-10-17T04:58:45.477Z,13.51
2018-10-17T04:59:45.250Z,13.48
2018-10-17T05:00:45.222Z,13.43
2018-10-17T05:01:45.195Z,13.36
2018-10-17T05:02:45.165Z,13.35
2018-10-17T05:03:45.140Z,13.36
2018-10-17T05:04:45.174Z,13.35
2018-10-17T05:05:45.090Z,13.25
2018-10-17T05:06:45.107Z,13.36
2018-10-17T05:07:45.033Z,13.31
2018-10-17T05:08:45.012Z,13.39
2018-10-17T05:09:44.978Z,13.36
2018-10-17T05:10:44.954Z,13.43
2018-10-17T05:11:44.923Z,13.43
2018-10-17T05:12:44.898Z,13.39
2018-10-17T05:13:44.871Z,13.41
2018-10-17T05:14:44.847Z,13.44
2018-10-17T05:15:44.817Z,13.38
2018-10-17T05:16:44.800Z,13.47
2018-10-17T05:17:44.768Z,13.41
2018-10-17T05:18:44.735Z,13.47
2018-10-17T05:19:44.708Z,13.51
2018-10-17T05:20:44.678Z,13.47
2018-10-17T05:21:44.660Z,13.48
2018-10-17T05:22:44.625Z,13.53
2018-10-17T05:23:44.601Z,13.48
2018-10-17T05:24:44.574Z,13.59
2018-10-17T05:25:44.547Z,13.59
2018-10-17T05:26:44.526Z,13.55
2018-10-17T05:27:44.495Z,13.61
2018-10-17T05:28:44.463Z,13.66
2018-10-17T05:29:44.644Z,13.69
2018-10-17T05:30:44.410Z,13.65
2018-10-17T05:31:44.382Z,13.68
2018-10-17T05:32:44.358Z,13.69
2018-10-17T05:33:44.329Z,13.68
2018-10-17T05:34:44.300Z,13.66
2018-10-17T05:35:44.278Z,13.73
2018-10-17T05:36:44.252Z,13.63
2018-10-17T05:37:44.345Z,13.71
2018-10-17T05:38:44.195Z,13.62
2018-10-17T05:39:44.168Z,13.62
2018-10-17T05:40:44.139Z,13.61
2018-10-17T05:41:44.112Z,13.61
2018-10-17T05:42:44.085Z,13.61
2018-10-17T05:43:44.060Z,13.66
2018-10-17T05:44:44.036Z,13.76
2018-10-17T05:45:44.012Z,13.69
2018-10-17T05:46:43.980Z,13.73
2018-10-17T05:47:43.951Z,13.76
2018-10-17T05:48:43.926Z,13.62
2018-10-17T05:49:43.897Z,13.71
2018-10-17T05:50:43.875Z,13.66
2018-10-17T05:51:43.843Z,13.76
2018-10-17T05:52:43.818Z,13.69
2018-10-17T05:53:43.792Z,13.71
2018-10-17T05:54:43.764Z,13.69
2018-10-17T05:55:43.740Z,13.69
2018-10-17T05:56:43.713Z,13.73
2018-10-17T05:57:43.681Z,13.75
2018-10-17T05:58:43.656Z,13.75
2018-10-17T05:59:43.633Z,13.71
2018-10-17T06:00:43.603Z,13.65
2018-10-17T06:01:43.744Z,13.69
2018-10-17T06:02:43.548Z,13.88
2018-10-17T06:03:43.523Z,13.87
2018-10-17T06:04:43.697Z,13.75
2018-10-17T06:05:43.674Z,13.84
2018-10-17T06:06:43.692Z,13.76
2018-10-17T06:07:43.417Z,13.76
2018-10-17T06:08:43.387Z,13.81
2018-10-17T06:09:43.364Z,13.87
2018-10-17T06:10:43.336Z,13.96
2018-10-17T06:11:43.305Z,13.96
2018-10-17T06:12:43.281Z,14.09
2018-10-17T06:13:43.254Z,14.17
2018-10-17T06:14:43.229Z,14.20
2018-10-17T06:15:43.209Z,14.34
2018-10-17T06:16:43.378Z,14.34
2018-10-17T06:17:43.347Z,14.46
2018-10-17T06:18:43.168Z,14.54
2018-10-17T06:19:43.295Z,14.54
2018-10-17T06:20:43.273Z,14.64
2018-10-17T06:21:43.044Z,14.79
2018-10-17T06:22:43.215Z,14.86
2018-10-17T06:23:43.188Z,14.80
2018-10-17T06:24:43.164Z,14.82
2018-10-17T06:25:43.138Z,14.95
2018-10-17T06:26:43.108Z,14.93
2018-10-17T06:27:42.881Z,14.95
2018-10-17T06:28:42.853Z,15.09
2018-10-17T06:29:42.826Z,15.27
2018-10-17T06:30:42.843Z,15.44
2018-10-17T06:31:42.777Z,15.64
2018-10-17T06:32:42.749Z,15.71
2018-10-17T06:33:42.932Z,15.48
2018-10-17T06:34:42.733Z,15.49
2018-10-17T06:35:42.671Z,15.37
2018-10-17T06:36:42.643Z,15.46
2018-10-17T06:37:42.621Z,15.77
2018-10-17T06:39:24.945Z,15.96
2018-10-17T06:40:24.918Z,15.92
2018-10-17T06:41:24.689Z,16.03
2018-10-17T06:42:25.170Z,15.98
2018-10-17T06:43:24.688Z,16.26
2018-10-17T06:44:24.620Z,16.37
2018-10-17T06:45:24.590Z,16.44
2018-10-17T06:46:24.560Z,16.42
2018-10-17T06:47:24.536Z,16.54
2018-10-17T06:48:24.712Z,16.66
2018-10-17T06:49:24.514Z,16.84
2018-10-17T06:50:24.464Z,16.82
2018-10-17T06:52:06.792Z,16.92
2018-10-17T06:53:06.831Z,16.88
2018-10-17T06:54:06.944Z,17.15
2018-10-17T06:55:06.587Z,17.27
2018-10-17T06:56:48.838Z,17.55
2018-10-17T06:57:48.843Z,17.73
2018-10-17T06:58:48.589Z,17.80
2018-10-17T06:59:48.565Z,17.86
2018-10-17T07:00:48.539Z,17.92
2018-10-17T07:01:48.601Z,17.94
2018-10-17T07:02:48.490Z,18.29
2018-10-17T07:03:48.465Z,18.11
2018-10-17T07:04:48.642Z,18.39
2018-10-17T07:05:48.619Z,18.31
2018-10-17T07:06:48.393Z,18.23
2018-10-17T07:07:48.372Z,18.49
2018-10-17T07:08:48.547Z,18.32
2018-10-17T07:09:48.319Z,18.01
2018-10-17T07:10:52.355Z,17.94
2018-10-17T07:28:40.451Z,16.70
2018-10-17T07:29:39.987Z,16.87
2018-10-17T07:30:39.838Z,16.90
2018-10-17T07:31:39.816Z,16.87
2018-10-17T07:32:39.810Z,16.73
2018-10-17T07:33:39.766Z,16.90
2018-10-17T07:34:39.746Z,16.92
2018-10-17T07:35:39.780Z,16.98
2018-10-17T07:36:39.691Z,17.00
2018-10-17T07:37:39.665Z,17.17
2018-10-17T07:38:39.641Z,17.00
2018-10-17T07:39:39.620Z,16.95
2018-10-17T07:40:39.595Z,16.96
2018-10-17T07:41:39.578Z,17.00
2018-10-17T07:42:39.548Z,17.02
2018-10-17T07:43:39.523Z,17.07
2018-10-17T07:44:39.503Z,16.99
2018-10-17T08:24:18.063Z,17.91
2018-10-17T08:25:17.948Z,17.91
2018-10-17T08:26:17.928Z,17.86
2018-10-17T08:27:17.967Z,17.86
2018-10-17T08:28:17.676Z,17.94
2018-10-17T08:29:17.853Z,18.04
2018-10-17T08:30:17.750Z,18.11
2018-10-17T08:31:17.603Z,18.20
2018-10-17T08:32:17.580Z,18.17
2018-10-17T08:33:17.769Z,18.16
2018-10-17T08:34:17.734Z,18.25
2018-10-17T08:35:17.775Z,18.38
2018-10-17T08:36:17.740Z,18.31
2018-10-17T08:37:17.934Z,18.26
2018-10-17T08:38:59.794Z,18.36
2018-10-17T08:39:59.571Z,18.36
2018-10-17T08:40:59.558Z,18.26
2018-10-17T08:41:59.575Z,18.32
2018-10-17T08:42:59.506Z,18.34
2018-10-17T08:43:59.519Z,18.29
2018-10-17T08:44:59.461Z,18.32
2018-10-17T08:45:59.438Z,18.36
2018-10-17T08:46:59.414Z,18.34
2018-10-17T08:47:59.385Z,18.34
2018-10-17T08:48:59.365Z,18.29
2018-10-17T08:49:59.417Z,18.36
2018-10-17T08:51:00.351Z,18.14
2018-10-17T08:51:59.505Z,18.35
2018-10-17T08:52:59.273Z,18.29
2018-10-17T08:53:59.250Z,18.31
2018-10-17T08:54:59.228Z,18.26
2018-10-17T08:55:59.239Z,18.23
2018-10-17T08:56:59.181Z,18.34
2018-10-17T08:57:59.259Z,18.54
2018-10-17T08:58:59.135Z,18.66
2018-10-17T08:59:59.109Z,18.54
2018-10-17T09:00:59.091Z,18.62
2018-10-17T09:01:59.142Z,18.54
2018-10-17T09:02:59.046Z,18.72
2018-10-17T09:03:59.029Z,18.79
2018-10-17T09:04:59.301Z,18.82
2018-10-17T09:05:59.053Z,18.90
2018-10-17T09:06:58.952Z,19.02
2018-10-17T09:07:58.985Z,19.10
2018-10-17T09:08:58.906Z,19.31
2018-10-17T09:09:58.883Z,19.42
2018-10-17T09:10:59.113Z,19.60
2018-10-17T09:11:58.841Z,20.20
2018-10-17T09:12:58.816Z,21.00
2018-10-17T09:13:58.828Z,21.59
2018-10-17T09:14:58.977Z,22.27
2018-10-17T09:15:58.807Z,22.46
2018-10-17T09:16:58.730Z,22.06
2018-10-17T09:17:58.771Z,21.91
2018-10-17T09:18:58.887Z,21.55
2018-10-17T09:19:58.933Z,21.53
2018-10-17T09:20:59.149Z,21.49
2018-10-17T09:21:59.022Z,21.53
2018-10-17T09:22:58.801Z,22.04
2018-10-17T09:23:58.806Z,22.46
2018-10-17T09:24:58.781Z,22.76
2018-10-17T09:27:23.043Z,23.16
2018-10-17T09:28:23.023Z,23.31
2018-10-17T09:29:23.006Z,23.29
2018-10-17T09:30:23.151Z,23.23
2018-10-17T09:31:22.961Z,22.89
2018-10-17T09:32:22.953Z,23.09
2018-10-17T09:33:22.921Z,23.49
2018-10-17T09:34:22.904Z,23.64
2018-10-17T09:35:22.881Z,23.74
2018-10-17T09:36:22.870Z,24.44
2018-10-17T09:37:22.846Z,24.90
2018-10-17T09:38:22.826Z,24.83
2018-10-17T09:39:22.800Z,24.30
2018-10-17T09:40:22.575Z,24.15
2018-10-17T09:41:22.557Z,23.89
2018-10-17T09:42:22.739Z,24.48
2018-10-17T09:43:22.623Z,24.87
2018-10-17T09:44:22.500Z,24.98
2018-10-17T09:45:22.680Z,25.72
2018-10-17T09:46:22.869Z,26.17
2018-10-17T09:48:04.857Z,24.68
2018-10-17T09:49:04.584Z,25.61
2018-10-17T09:52:57.011Z,25.97
2018-10-17T09:53:53.170Z,26.35
2018-10-17T09:54:53.338Z,26.53
2018-10-17T09:55:53.321Z,26.59
2018-10-17T09:56:53.100Z,26.91
2018-10-17T09:57:53.133Z,26.12
2018-10-17T09:58:53.061Z,26.00
2018-10-17T09:59:53.050Z,25.66
2018-10-17T10:00:53.025Z,25.49
2018-10-17T10:01:53.004Z,25.34
2018-10-17T10:02:52.993Z,25.60
2018-10-17T10:03:52.991Z,25.85
2018-10-17T10:04:52.951Z,26.11
2018-10-17T10:05:52.974Z,26.23
2018-10-17T10:06:52.914Z,26.50
2018-10-17T10:07:52.894Z,26.49
2018-10-17T10:08:53.083Z,26.50
2018-10-17T10:09:52.871Z,27.35
2018-10-17T10:10:52.853Z,27.80
2018-10-17T10:11:53.034Z,27.81
2018-10-17T10:12:52.803Z,27.81
2018-10-17T10:13:52.985Z,28.21
2018-10-17T10:14:52.767Z,28.39
2018-10-17T10:15:52.782Z,28.94
2018-10-17T10:16:52.782Z,28.25
2018-10-17T10:17:52.716Z,28.36
2018-10-17T10:18:52.697Z,27.16
2018-10-17T10:19:52.687Z,26.34
2018-10-17T10:20:52.661Z,26.72
2018-10-17T10:21:52.649Z,27.18
2018-10-17T10:23:35.027Z,27.91
2018-10-17T10:24:34.837Z,28.09
2018-10-17T10:25:34.748Z,28.21
2018-10-17T10:26:34.733Z,28.38
2018-10-17T10:27:34.716Z,28.36
2018-10-17T10:28:34.756Z,28.60
2018-10-17T10:29:34.710Z,28.45
2018-10-17T10:36:54.277Z,27.74
2018-10-17T10:37:54.057Z,27.71
2018-10-17T10:38:54.242Z,27.45
2018-10-17T10:39:54.090Z,27.59
2018-10-17T10:40:54.008Z,27.27
2018-10-17T10:41:54.019Z,27.68
2018-10-17T10:42:53.974Z,27.02
2018-10-17T10:43:53.958Z,27.39
2018-10-17T10:44:53.989Z,27.72
2018-10-17T10:45:53.923Z,27.90
2018-10-17T10:46:53.905Z,27.98
2018-10-17T10:47:53.900Z,27.98
2018-10-17T10:48:53.879Z,27.76
2018-10-17T10:49:53.889Z,27.61
2018-10-17T10:50:53.906Z,27.96
2018-10-17T10:51:53.825Z,28.36
2018-10-17T10:52:53.835Z,28.17
2018-10-17T10:53:53.868Z,28.40
2018-10-17T10:54:53.777Z,27.99
2018-10-17T10:55:53.825Z,28.11
2018-10-17T10:56:53.965Z,27.91
2018-10-17T10:57:53.743Z,27.03
2018-10-17T10:58:53.791Z,26.75
2018-10-17T10:59:53.764Z,26.46
2018-10-17T11:00:53.685Z,26.13
2018-10-17T11:01:53.667Z,25.96
2018-10-17T11:02:53.666Z,26.20
2018-10-17T11:03:53.629Z,26.46
2018-10-17T11:04:53.660Z,26.46
2018-10-17T11:05:53.595Z,26.78
2018-10-17T11:06:53.580Z,27.42
2018-10-17T11:07:53.583Z,27.18
2018-10-17T11:08:53.551Z,26.83
2018-10-17T11:09:53.535Z,26.96
2018-10-17T11:10:53.541Z,27.12
2018-10-17T11:11:53.504Z,26.78
2018-10-17T11:12:53.491Z,26.86
2018-10-17T11:13:53.491Z,27.25
2018-10-17T11:14:53.744Z,27.30
2018-10-17T11:15:53.439Z,27.20
2018-10-17T11:16:53.459Z,27.12
2018-10-17T11:17:53.400Z,27.09
2018-10-17T11:18:53.382Z,26.47
2018-10-17T11:19:53.375Z,27.03
2018-10-17T11:20:53.405Z,26.66
2018-10-17T11:21:53.439Z,26.16
2018-10-17T11:22:53.325Z,25.93
2018-10-17T11:23:53.327Z,25.60
2018-10-17T11:24:53.292Z,25.93
2018-10-17T11:25:53.270Z,26.19
2018-10-17T11:26:53.265Z,26.11
2018-10-17T11:27:53.236Z,26.39
2018-10-17T11:28:53.238Z,26.93
2018-10-17T11:29:53.200Z,26.91
2018-10-17T11:30:53.185Z,27.03
2018-10-17T11:31:53.206Z,27.76
2018-10-17T11:32:53.209Z,27.49
2018-10-17T11:33:53.136Z,27.86
2018-10-17T11:34:53.138Z,27.45
2018-10-17T11:35:53.110Z,27.12
2018-10-17T11:36:53.085Z,27.20
2018-10-17T11:37:53.088Z,27.28
2018-10-17T11:38:53.062Z,27.80
2018-10-17T11:39:53.093Z,27.95
2018-10-17T11:40:53.093Z,28.32
2018-10-17T11:41:53.003Z,28.23
2018-10-17T11:42:52.995Z,28.73
2018-10-17T11:43:52.976Z,28.60
2018-10-17T11:44:52.960Z,28.80
2018-10-17T11:45:52.943Z,28.14
2018-10-17T11:46:52.972Z,28.80
2018-10-17T11:47:53.141Z,29.10
2018-10-17T11:55:12.512Z,28.77
2018-10-17T11:56:12.698Z,28.83
2018-10-17T11:59:19.025Z,29.18
2018-10-17T12:00:18.733Z,28.85
2018-10-17T12:01:18.717Z,28.82
2018-10-17T12:06:31.926Z,29.37
2018-10-17T12:07:31.632Z,29.11
2018-10-17T12:11:20.509Z,29.55
2018-10-17T12:12:20.263Z,29.44
2018-10-17T12:13:20.420Z,29.60
2018-10-17T12:14:20.228Z,29.45
2018-10-17T12:15:20.490Z,29.25
2018-10-17T12:38:49.442Z,28.46
2018-10-17T12:39:49.286Z,28.80
2018-10-17T12:40:49.285Z,28.89
2018-10-17T12:41:49.160Z,28.46
2018-10-17T12:42:49.144Z,28.32
2018-10-17T12:43:49.124Z,28.25
2018-10-17T12:44:49.393Z,28.73
2018-10-17T12:45:49.281Z,29.00
2018-10-17T12:46:49.075Z,29.02
2018-10-17T12:47:49.059Z,28.45
2018-10-17T12:48:49.042Z,28.57
2018-10-17T12:49:49.088Z,28.21
2018-10-17T12:50:49.064Z,27.69
2018-10-17T12:51:49.209Z,28.11
2018-10-17T12:52:49.139Z,28.62
2018-10-17T12:53:48.969Z,28.97
2018-10-17T12:54:48.968Z,29.17
2018-10-17T12:55:48.935Z,29.30
2018-10-17T12:56:48.922Z,28.97
2018-10-17T12:57:48.910Z,28.52
2018-10-17T12:58:48.887Z,28.58
2018-10-17T12:59:48.870Z,28.48
2018-10-17T13:00:48.869Z,28.45
2018-10-17T13:01:48.846Z,28.80
2018-10-17T13:02:48.827Z,28.91
2018-10-17T13:03:49.013Z,29.10
2018-10-17T13:04:48.796Z,28.92
2018-10-17T13:08:55.440Z,29.17
2018-10-17T13:09:55.225Z,29.21
2018-10-17T13:10:55.276Z,29.27
2018-10-17T13:11:55.195Z,29.10
2018-10-17T13:12:55.210Z,28.92
2018-10-17T13:13:55.167Z,28.70
2018-10-17T13:14:55.159Z,28.98
2018-10-17T13:15:55.135Z,28.43
2018-10-17T13:16:55.157Z,28.67
2018-10-17T13:17:55.124Z,28.57
2018-10-17T13:18:55.131Z,28.54
2018-10-17T13:19:57.903Z,28.50
2018-10-17T13:23:43.891Z,27.80
2018-10-17T13:34:34.071Z,26.21
2018-10-17T13:35:33.862Z,26.21
2018-10-17T13:36:33.834Z,26.11
2018-10-17T13:37:34.022Z,26.12
2018-10-17T13:41:22.625Z,25.72
2018-10-17T13:42:22.407Z,25.81
2018-10-17T13:44:07.368Z,25.53
2018-10-17T13:45:05.740Z,25.51
2018-10-17T13:46:04.507Z,25.59
2018-10-17T13:47:04.571Z,25.69
2018-10-17T13:48:04.473Z,25.86
2018-10-17T13:49:04.570Z,26.19
2018-10-17T13:50:04.455Z,26.36
2018-10-17T13:51:04.418Z,26.79
2018-10-17T13:52:04.398Z,27.20
2018-10-17T13:53:04.492Z,27.30
2018-10-17T13:54:04.361Z,27.74
2018-10-17T13:55:04.378Z,27.74
2018-10-17T13:56:04.327Z,27.31
2018-10-17T13:57:04.308Z,27.24
2018-10-17T13:58:04.325Z,27.23
2018-10-17T13:59:04.331Z,27.15
2018-10-17T14:00:04.259Z,27.27
2018-10-17T14:01:04.329Z,27.24
2018-10-17T14:02:04.221Z,27.18
2018-10-17T14:03:04.202Z,27.23
2018-10-17T14:04:04.270Z,27.13
2018-10-17T14:05:04.166Z,26.97
2018-10-17T14:06:04.222Z,26.86
2018-10-17T14:07:04.205Z,26.73
2018-10-17T14:08:04.115Z,26.86
2018-10-17T14:09:04.109Z,26.84
2018-10-17T14:10:04.079Z,26.68
2018-10-17T14:11:04.065Z,26.42
2018-10-17T14:12:04.062Z,26.20
2018-10-17T14:13:04.026Z,26.28
2018-10-17T14:14:04.008Z,26.16
2018-10-17T14:15:04.024Z,26.19
2018-10-17T14:16:03.977Z,26.36
2018-10-17T14:17:03.962Z,26.23
2018-10-17T14:18:03.979Z,26.42
2018-10-17T14:19:03.923Z,26.24
2018-10-17T14:20:03.905Z,26.24
2018-10-17T14:21:03.913Z,26.13
2018-10-17T14:22:03.869Z,26.16
2018-10-17T14:23:03.850Z,26.09
2018-10-17T14:24:03.893Z,26.21
2018-10-17T14:25:03.817Z,26.47
2018-10-17T14:26:03.796Z,26.90
2018-10-17T14:27:03.875Z,27.28
2018-10-17T14:28:03.767Z,26.97
2018-10-17T14:29:03.745Z,26.47
2018-10-17T14:30:03.789Z,26.54
2018-10-17T14:31:03.709Z,26.61
2018-10-17T14:32:03.693Z,26.46
2018-10-17T14:33:03.690Z,26.44
2018-10-17T14:34:03.654Z,26.64
2018-10-17T14:35:03.643Z,26.46
2018-10-17T14:36:03.742Z,26.36
2018-10-17T14:37:03.604Z,26.12
2018-10-17T14:38:03.764Z,25.82
2018-10-17T14:39:03.650Z,25.74
2018-10-17T14:40:03.549Z,25.53
2018-10-17T14:41:03.759Z,25.46
2018-10-17T14:42:03.568Z,25.09
2018-10-17T14:43:03.491Z,24.92
2018-10-17T14:44:03.480Z,24.83
2018-10-17T14:45:03.529Z,24.83
2018-10-17T14:48:10.185Z,24.70
2018-10-17T14:49:10.085Z,24.46
2018-10-17T14:50:09.865Z,24.29
2018-10-17T14:51:09.926Z,24.24
2018-10-17T14:52:10.030Z,24.18
2018-10-17T14:53:52.164Z,24.06
2018-10-17T14:54:52.146Z,23.96
2018-10-17T14:55:51.950Z,23.90
2018-10-17T14:56:51.923Z,23.82
2018-10-17T14:57:52.089Z,23.71
2018-10-17T14:58:51.873Z,23.67
2018-10-17T14:59:51.845Z,23.68
2018-10-17T15:00:51.824Z,23.53
2018-10-17T15:01:51.804Z,23.47
2018-10-17T15:02:51.796Z,23.39